Time;durP1;ratioP1;P1;durP2;ratioP2;P2;SDS_P1;SDS_P2;PMS_P1;PMS_P2;Temp;Humidity;BMP_temperature;BMP_pressure;BME280_temperature;BME280_humidity;BME280_pressure;Samples;Min_cycle;Max_cycle;Signal;HPM_P1;HPM_P2
2022/06/29 00:02:30;;;;;;;19.15;17.27;;;;;;;21.63;71.63;100748.83;1794364;80;21450;-56
2022/06/29 00:05:37;;;;;;;21.00;18.87;;;;;;;21.62;71.71;100747.14;1794405;80;21197;-54
2022/06/29 00:08:46;;;;;;;20.77;18.77;;;;;;;21.60;71.71;100743.20;1794202;80;21185;-54
2022/06/29 00:11:52;;;;;;;20.25;18.17;;;;;;;21.56;71.70;100748.97;1793973;80;21205;-55
2022/06/29 00:15:02;;;;;;;20.77;18.67;;;;;;;21.52;71.72;100750.52;1794140;80;21201;-56
2022/06/29 00:18:08;;;;;;;23.47;19.10;;;;;;;21.48;71.81;100743.73;1794084;80;21177;-55
2022/06/29 00:21:17;;;;;;;21.23;19.02;;;;;;;21.48;71.96;100737.30;1778316;79;21190;-53
2022/06/29 00:24:26;;;;;;;21.07;18.98;;;;;;;21.44;72.01;100739.70;1794017;80;21199;-55
2022/06/29 00:27:31;;;;;;;21.60;19.07;;;;;;;21.42;72.10;100737.69;1794255;80;21161;-55
2022/06/29 00:30:37;;;;;;;22.35;20.00;;;;;;;21.42;72.24;100732.12;1794244;80;21201;-55
2022/06/29 00:33:42;;;;;;;20.57;18.60;;;;;;;21.41;72.36;100736.00;1794294;80;21340;-56
2022/06/29 00:36:48;;;;;;;21.45;19.23;;;;;;;21.42;72.45;100743.27;1794318;80;21228;-54
2022/06/29 00:39:55;;;;;;;20.55;18.45;;;;;;;21.41;72.40;100746.29;1794305;80;21185;-54
2022/06/29 00:43:01;;;;;;;21.52;18.77;;;;;;;21.35;72.38;100745.31;1775665;80;21359;-54
2022/06/29 00:46:08;;;;;;;22.00;19.80;;;;;;;21.33;72.51;100746.09;1800111;79;21686;-54
2022/06/29 00:49:15;;;;;;;23.75;20.12;;;;;;;21.32;72.60;100747.72;1799735;79;21317;-54
2022/06/29 00:52:22;;;;;;;21.20;19.12;;;;;;;21.30;72.70;100747.95;1799479;80;21260;-55
2022/06/29 00:55:28;;;;;;;22.13;19.77;;;;;;;21.30;72.80;100751.28;1799628;79;21317;-55
2022/06/29 00:58:34;;;;;;;22.48;20.12;;;;;;;21.29;72.87;100739.31;1799318;80;21225;-56
2022/06/29 01:01:39;;;;;;;23.35;19.82;;;;;;;21.27;72.92;100744.26;1799194;79;21746;-55
2022/06/29 01:04:45;;;;;;;22.17;20.08;;;;;;;21.25;72.98;100742.24;1799160;79;21179;-55
2022/06/29 01:07:52;;;;;;;22.93;20.52;;;;;;;21.24;72.98;100743.88;1799532;79;21173;-55
2022/06/29 01:10:58;;;;;;;21.93;19.62;;;;;;;21.22;73.08;100739.08;1798810;80;21259;-56
2022/06/29 01:14:06;;;;;;;22.25;20.02;;;;;;;21.20;73.19;100737.09;1799453;79;21173;-56
2022/06/29 01:17:12;;;;;;;22.70;20.50;;;;;;;21.19;73.25;100736.77;1799776;79;21351;-55
2022/06/29 01:20:19;;;;;;;25.25;21.42;;;;;;;21.15;73.22;100733.62;1799903;79;21331;-54
2022/06/29 01:23:26;;;;;;;22.10;19.95;;;;;;;21.11;73.27;100736.56;1799673;80;21260;-56
2022/06/29 01:26:33;;;;;;;22.70;20.40;;;;;;;21.10;73.37;100752.11;1799708;79;21233;-57
2022/06/29 01:29:41;;;;;;;23.92;20.97;;;;;;;21.07;73.49;100745.63;1799669;79;21186;-56
2022/06/29 01:32:47;;;;;;;23.30;21.00;;;;;;;21.05;73.58;100743.08;1799710;79;21193;-56
2022/06/29 01:35:53;;;;;;;24.12;20.68;;;;;;;21.04;73.68;100752.49;1799773;80;21379;-55
2022/06/29 01:39:00;;;;;;;23.70;21.05;;;;;;;21.02;73.71;100756.61;1799849;79;21173;-56
2022/06/29 01:42:09;;;;;;;23.75;21.25;;;;;;;20.96;73.73;100754.23;1799762;79;21335;-56
2022/06/29 01:45:15;;;;;;;23.02;20.62;;;;;;;20.95;73.89;100759.45;1784840;80;21284;-56
2022/06/29 01:48:23;;;;;;;22.32;20.12;;;;;;;20.96;74.01;100757.02;1784081;80;21213;-56
2022/06/29 01:51:30;;;;;;;25.60;20.92;;;;;;;20.95;74.03;100751.66;1784160;80;21340;-56
2022/06/29 01:54:37;;;;;;;21.65;19.45;;;;;;;20.93;74.04;100754.64;1784441;80;21221;-55
2022/06/29 01:57:45;;;;;;;23.10;20.70;;;;;;;20.89;74.03;100765.95;1784697;80;21182;-56
2022/06/29 02:00:52;;;;;;;25.43;21.37;;;;;;;20.85;74.07;100774.48;1784581;79;21202;-56
2022/06/29 02:03:57;;;;;;;23.38;20.97;;;;;;;20.85;74.24;100768.05;1784361;79;21202;-56
2022/06/29 02:07:02;;;;;;;23.10;20.70;;;;;;;20.87;74.36;100771.46;1785407;79;21170;-56
2022/06/29 02:10:09;;;;;;;23.60;21.15;;;;;;;20.90;74.43;100765.42;1784523;80;21332;-56
2022/06/29 02:13:14;;;;;;;24.43;21.77;;;;;;;20.91;74.49;100758.76;1784343;80;21190;-56
2022/06/29 02:16:22;;;;;;;23.05;20.32;;;;;;;20.95;74.59;100765.02;1784034;80;21336;-55
2022/06/29 02:19:31;;;;;;;23.27;20.92;;;;;;;21.01;74.69;100764.11;1784358;80;21189;-56
2022/06/29 02:22:37;;;;;;;22.77;20.05;;;;;;;21.05;74.64;100772.31;1784752;79;21328;-56
2022/06/29 02:25:43;;;;;;;24.07;21.52;;;;;;;21.09;74.67;100775.48;1784091;80;21186;-57
2022/06/29 02:28:53;;;;;;;22.37;20.15;;;;;;;21.13;74.79;100778.95;1784310;80;21323;-57
2022/06/29 02:35:26;;;;;;;22.67;20.35;;;;;;;21.20;74.75;100769.95;1784150;80;21202;-54
2022/06/29 02:38:32;;;;;;;24.12;21.73;;;;;;;21.26;74.89;100774.59;1768256;80;21170;-56
2022/06/29 02:41:38;;;;;;;25.80;21.77;;;;;;;21.34;74.94;100777.06;1767449;80;21209;-56
2022/06/29 02:44:46;;;;;;;23.95;21.68;;;;;;;21.41;75.01;100776.40;1782835;80;21269;-56
2022/06/29 02:47:53;;;;;;;23.60;21.02;;;;;;;21.49;75.07;100773.28;1799942;79;21177;-56
2022/06/29 02:51:00;;;;;;;24.23;21.50;;;;;;;21.55;75.07;100780.68;1799443;79;21206;-55
2022/06/29 02:54:07;;;;;;;23.27;20.97;;;;;;;21.60;75.07;100776.64;1799756;79;21185;-56
2022/06/29 02:57:13;;;;;;;24.52;22.02;;;;;;;21.64;75.11;100782.59;1799562;79;21212;-56
2022/06/29 03:00:21;;;;;;;23.22;20.75;;;;;;;21.71;75.14;100770.25;1782691;80;21200;-56
2022/06/29 03:03:28;;;;;;;24.45;21.73;;;;;;;21.76;75.17;100773.20;1782842;80;21177;-57
2022/06/29 03:06:35;;;;;;;24.55;21.97;;;;;;;21.83;75.23;100765.60;1799295;79;21714;-55
2022/06/29 03:09:41;;;;;;;24.70;22.10;;;;;;;21.90;75.34;100770.50;1782639;79;21213;-56
2022/06/29 03:12:48;;;;;;;23.67;21.37;;;;;;;22.00;75.39;100769.37;1799431;79;21287;-56
2022/06/29 03:15:54;;;;;;;24.82;22.22;;;;;;;22.09;75.44;100771.23;1799998;79;21200;-55
2022/06/29 03:19:01;;;;;;;23.50;21.27;;;;;;;22.15;75.38;100776.70;1799436;79;21241;-56
2022/06/29 03:22:07;;;;;;;23.52;21.35;;;;;;;22.21;75.39;100781.31;1799229;79;21177;-55
2022/06/29 03:25:15;;;;;;;24.77;22.17;;;;;;;22.28;75.46;100774.79;1799579;79;21189;-55
2022/06/29 03:28:20;;;;;;;24.65;22.22;;;;;;;22.35;75.49;100783.87;1780989;80;21181;-56
2022/06/29 03:31:27;;;;;;;23.67;21.35;;;;;;;22.40;75.50;100792.36;1799948;79;21192;-56
2022/06/29 03:34:34;;;;;;;25.20;22.70;;;;;;;22.46;75.56;100788.06;1799717;79;21251;-56
2022/06/29 03:37:42;;;;;;;24.57;22.13;;;;;;;22.54;75.58;100803.61;1800069;79;21666;-57
2022/06/29 03:40:49;;;;;;;24.70;22.27;;;;;;;22.58;75.60;100798.69;1799383;79;21221;-57
2022/06/29 03:43:56;;;;;;;25.97;23.32;;;;;;;22.65;75.71;100806.94;1799186;79;21192;-57
2022/06/29 03:47:01;;;;;;;25.55;22.95;;;;;;;22.70;75.70;100812.11;1796352;79;21213;-57
2022/06/29 03:50:09;;;;;;;24.92;22.30;;;;;;;22.76;75.80;100813.05;1796664;80;21228;-56
2022/06/29 03:53:15;;;;;;;24.70;22.40;;;;;;;22.82;75.94;100807.34;1779709;80;21177;-56
2022/06/29 03:56:20;;;;;;;24.92;22.60;;;;;;;22.90;76.00;100811.69;1795904;80;21173;-56
2022/06/29 03:59:30;;;;;;;24.90;22.40;;;;;;;23.00;75.98;100817.51;1796500;80;21185;-57
2022/06/29 04:02:38;;;;;;;25.80;21.65;;;;;;;23.07;76.06;100817.66;1779975;79;21177;-56
2022/06/29 04:05:46;;;;;;;26.20;22.13;;;;;;;23.16;76.04;100818.14;1764247;81;21208;-56
2022/06/29 04:08:55;;;;;;;25.37;22.77;;;;;;;23.25;76.09;100813.84;1752106;82;21201;-55
2022/06/29 04:12:05;;;;;;;25.52;22.85;;;;;;;23.36;76.14;100815.78;1748220;81;21835;-56
2022/06/29 04:15:13;;;;;;;24.85;22.27;;;;;;;23.46;76.09;100811.27;1764635;81;21229;-57
2022/06/29 04:18:23;;;;;;;25.35;22.85;;;;;;;23.52;76.00;100805.21;1758749;80;21887;-57
2022/06/29 04:21:29;;;;;;;24.15;21.80;;;;;;;23.62;76.12;100808.21;1765115;80;21244;-58
2022/06/29 04:24:38;;;;;;;25.02;22.05;;;;;;;23.76;76.22;100807.34;1753156;81;21220;-57
2022/06/29 04:27:44;;;;;;;25.02;22.52;;;;;;;23.89;76.23;100809.28;1780208;79;21234;-57
2022/06/29 04:30:51;;;;;;;23.42;20.92;;;;;;;24.05;76.19;100803.43;1733947;82;21753;-57
2022/06/29 04:33:58;;;;;;;23.83;21.30;;;;;;;24.16;76.13;100798.30;1764384;81;21189;-58
2022/06/29 04:37:05;;;;;;;23.83;21.40;;;;;;;24.28;76.11;100805.51;1752083;82;21189;-58
2022/06/29 04:40:13;;;;;;;23.83;20.92;;;;;;;24.42;76.10;100807.42;1764906;81;21252;-56
2022/06/29 04:43:19;;;;;;;23.67;21.15;;;;;;;24.52;75.98;100804.76;1764690;81;21251;-57
2022/06/29 04:46:25;;;;;;;23.55;21.25;;;;;;;24.63;75.94;100797.66;1774926;81;21264;-57
2022/06/29 04:49:34;;;;;;;23.83;20.88;;;;;;;24.71;75.81;100802.00;1725871;83;21430;-56
2022/06/29 04:52:40;;;;;;;21.82;19.48;;;;;;;24.78;75.72;100803.50;1756946;81;21337;-55
2022/06/29 04:55:50;;;;;;;23.05;20.68;;;;;;;24.86;75.72;100810.06;1757030;81;21363;-55
2022/06/29 04:58:57;;;;;;;27.48;20.72;;;;;;;24.95;75.70;100809.93;1749210;80;21241;-57
2022/06/29 05:02:04;;;;;;;25.62;23.07;;;;;;;25.04;75.68;100805.55;1714114;82;21275;-57
2022/06/29 05:05:13;;;;;;;22.87;20.68;;;;;;;25.16;75.76;100809.64;1756039;80;21745;-57
2022/06/29 05:08:20;;;;;;;20.57;17.98;;;;;;;25.31;75.80;100802.80;1732667;82;21229;-55
2022/06/29 05:11:28;;;;;;;19.77;17.82;;;;;;;25.40;75.76;100807.44;1728301;82;21852;-57
2022/06/29 05:14:39;;;;;;;18.27;16.45;;;;;;;25.51;75.79;100803.64;1722930;81;21702;-56
2022/06/29 05:17:46;;;;;;;21.23;16.67;;;;;;;25.61;75.74;100803.19;1722345;82;21229;-56
2022/06/29 05:20:52;;;;;;;17.60;15.80;;;;;;;25.70;75.64;100802.17;1699042;84;21638;-57
2022/06/29 05:24:03;;;;;;;15.65;14.13;;;;;;;25.76;75.59;100802.50;1699474;84;21252;-57
2022/06/29 05:27:13;;;;;;;15.28;13.55;;;;;;;25.80;75.43;100796.09;1713748;82;21228;-57
2022/06/29 05:30:21;;;;;;;16.10;12.25;;;;;;;25.85;75.39;100796.14;1718518;82;22071;-58
2022/06/29 05:33:36;;;;;;;13.40;12.10;;;;;;;25.92;75.33;100794.53;1715969;82;21246;-59
2022/06/29 05:36:39;;;;;;;15.20;13.53;;;;;;;25.99;75.26;100799.37;1735360;80;21214;-60
2022/06/29 05:39:46;;;;;;;17.60;15.85;;;;;;;26.11;75.18;100795.86;1734152;82;21223;-60
2022/06/29 05:42:57;;;;;;;24.55;21.97;;;;;;;26.19;75.08;100796.77;1733814;82;21203;-59
2022/06/29 05:46:10;;;;;;;16.82;14.53;;;;;;;26.28;74.94;100800.77;1728121;82;21616;-60
2022/06/29 05:49:19;;;;;;;29.70;25.90;;;;;;;26.39;74.93;100807.61;1735593;82;21415;-59
2022/06/29 05:52:27;;;;;;;15.63;14.13;;;;;;;26.50;74.76;100811.33;1744429;82;21222;-57
2022/06/29 05:55:33;;;;;;;16.07;14.38;;;;;;;26.60;74.70;100808.59;1726233;81;21217;-60
2022/06/29 05:58:42;;;;;;;13.53;12.18;;;;;;;26.67;74.49;100813.44;1737791;82;21749;-59
2022/06/29 06:01:49;;;;;;;14.25;12.85;;;;;;;26.77;74.41;100814.06;1759006;81;21323;-59
2022/06/29 06:04:55;;;;;;;15.15;13.00;;;;;;;26.87;74.43;100814.98;1749632;82;21205;-59
2022/06/29 06:08:02;;;;;;;13.60;12.00;;;;;;;26.98;74.34;100818.14;1749800;82;21777;-57
2022/06/29 06:11:12;;;;;;;11.85;10.65;;;;;;;27.06;74.27;100819.03;1732288;82;21260;-59
2022/06/29 06:14:20;;;;;;;13.55;12.25;;;;;;;27.09;74.06;100820.44;1737449;81;21174;-58
2022/06/29 06:17:29;;;;;;;13.18;11.88;;;;;;;27.13;74.08;100821.02;1695987;82;21186;-57
2022/06/29 06:20:37;;;;;;;13.20;11.78;;;;;;;27.23;74.07;100821.07;1712576;82;21217;-58
2022/06/29 06:23:46;;;;;;;12.10;10.82;;;;;;;27.31;74.08;100819.17;1720649;83;21750;-58
2022/06/29 06:26:52;;;;;;;16.02;11.18;;;;;;;27.36;73.88;100823.42;1720220;83;21193;-58
2022/06/29 06:29:58;;;;;;;14.98;11.83;;;;;;;27.34;73.70;100817.22;1720134;83;21229;-59
2022/06/29 06:33:04;;;;;;;13.93;10.32;;;;;;;27.36;73.69;100820.61;1720890;82;21222;-58
2022/06/29 06:36:16;;;;;;;11.53;9.40;;;;;;;27.37;73.63;100829.31;1740496;81;21225;-56
2022/06/29 06:39:27;;;;;;;11.95;10.28;;;;;;;27.39;73.69;100831.30;1725389;81;21272;-56
2022/06/29 06:42:35;;;;;;;12.43;10.10;;;;;;;27.47;73.75;100834.13;1683237;84;21256;-57
2022/06/29 06:45:42;;;;;;;10.65;9.48;;;;;;;27.54;73.65;100829.11;1733503;81;21773;-57
2022/06/29 06:48:57;;;;;;;11.65;10.53;;;;;;;27.58;73.50;100831.09;1735250;80;21195;-58
2022/06/29 06:52:05;;;;;;;12.73;10.45;;;;;;;27.65;73.58;100830.83;1739778;80;21193;-57
2022/06/29 06:55:14;;;;;;;11.20;10.00;;;;;;;27.72;73.53;100830.84;1734634;81;21547;-58
2022/06/29 06:58:22;;;;;;;11.53;9.23;;;;;;;27.84;73.52;100831.42;1760500;81;21188;-57
2022/06/29 07:01:34;;;;;;;9.48;7.85;;;;;;;27.95;73.48;100828.67;1775198;80;21281;-57
2022/06/29 07:04:46;;;;;;;9.83;7.12;;;;;;;28.01;73.25;100826.98;1764468;80;21359;-57
2022/06/29 07:07:49;;;;;;;8.80;6.55;;;;;;;28.05;72.97;100827.28;1762938;80;21829;-57
2022/06/29 07:10:43;;;;;;;8.38;7.30;;;;;;;28.08;72.82;100823.91;1746480;81;21307;-55
2022/06/29 07:13:35;;;;;;;9.08;6.75;;;;;;;28.14;72.74;100818.55;1773732;79;21248;-57
2022/06/29 07:16:29;;;;;;;13.50;7.37;;;;;;;28.19;72.61;100815.19;1759456;80;21277;-55
2022/06/29 07:19:20;;;;;;;7.00;6.30;;;;;;;28.28;72.51;100816.86;1761441;80;21331;-57
2022/06/29 07:22:34;;;;;;;7.45;6.75;;;;;;;28.35;72.33;100808.98;1757870;81;21253;-56
2022/06/29 07:25:45;;;;;;;13.00;7.45;;;;;;;28.38;72.07;100814.91;1764384;81;21199;-57
2022/06/29 07:28:54;;;;;;;13.72;7.45;;;;;;;28.45;72.02;100816.86;1759509;81;21221;-58
2022/06/29 07:32:07;;;;;;;7.30;6.58;;;;;;;28.54;72.03;100815.19;1738845;82;21256;-57
2022/06/29 07:35:23;;;;;;;6.80;4.92;;;;;;;28.66;72.12;100807.30;1735298;81;21217;-57
2022/06/29 07:38:38;;;;;;;7.78;5.97;;;;;;;28.78;71.84;100802.77;1735234;82;21181;-58
2022/06/29 07:41:48;;;;;;;8.53;5.78;;;;;;;28.90;71.42;100811.75;1719744;82;21352;-57
2022/06/29 07:44:57;;;;;;;8.28;6.72;;;;;;;28.90;71.42;100811.75;1733675;82;21402;-57
2022/06/29 07:48:03;;;;;;;8.90;5.60;;;;;;;28.97;71.19;100812.31;1733830;82;21690;-58
2022/06/29 07:51:09;;;;;;;9.45;6.80;;;;;;;28.98;70.94;100804.12;1763422;80;21232;-57
2022/06/29 07:54:19;;;;;;;7.70;5.83;;;;;;;28.98;70.83;100808.34;1766870;81;21267;-57
2022/06/29 07:57:28;;;;;;;7.33;5.80;;;;;;;28.99;70.71;100814.25;1788545;80;21216;-58
2022/06/29 08:00:37;;;;;;;8.43;6.20;;;;;;;29.00;70.55;100807.50;1797154;79;22129;-56
2022/06/29 08:03:44;;;;;;;14.65;6.97;;;;;;;29.01;70.42;100807.77;1780709;80;21542;-57
2022/06/29 08:06:49;;;;;;;9.73;6.05;;;;;;;29.20;70.95;100802.66;1759092;81;21269;-56
2022/06/29 08:09:58;;;;;;;10.20;7.12;;;;;;;29.20;70.95;100802.66;1737230;82;21256;-56
2022/06/29 08:13:05;;;;;;;10.40;7.97;;;;;;;29.33;70.58;100799.78;1718440;82;21240;-57
2022/06/29 08:16:18;;;;;;;8.03;7.22;;;;;;;29.51;70.42;100801.93;1736599;82;21228;-57
2022/06/29 08:19:27;;;;;;;14.63;7.95;;;;;;;29.67;70.29;100798.52;1737299;82;21197;-56
2022/06/29 08:22:39;;;;;;;12.18;7.28;;;;;;;29.79;69.86;100806.05;1721154;82;21248;-57
2022/06/29 08:26:09;;;;;;;10.50;8.45;;;;;;;29.86;69.77;100799.52;1737066;82;21746;-57
2022/06/29 08:29:21;;;;;;;9.98;7.60;;;;;;;29.82;69.22;100795.02;1753042;81;21306;-57
2022/06/29 08:32:27;;;;;;;8.68;7.58;;;;;;;29.69;69.03;100794.25;1768024;81;21405;-58
2022/06/29 08:35:34;;;;;;;9.95;7.05;;;;;;;29.62;68.83;100791.45;1786566;80;21197;-56
2022/06/29 08:38:40;;;;;;;10.23;7.97;;;;;;;29.49;69.02;100796.31;1723052;82;21197;-58
2022/06/29 08:41:46;;;;;;;10.48;7.03;;;;;;;29.49;69.02;100796.31;1754911;81;21586;-57
2022/06/29 08:44:52;;;;;;;7.87;6.72;;;;;;;29.51;68.63;100801.93;1771315;81;21224;-58
2022/06/29 08:47:57;;;;;;;8.60;6.87;;;;;;;29.58;68.62;100803.03;1723712;81;21773;-56
2022/06/29 08:51:05;;;;;;;10.35;7.60;;;;;;;29.72;68.67;100788.58;1774892;80;21205;-57
2022/06/29 08:54:11;;;;;;;9.18;7.22;;;;;;;29.72;68.67;100788.58;1756811;80;21221;-57
2022/06/29 08:57:17;;;;;;;9.28;7.25;;;;;;;29.80;68.26;100783.17;1750363;80;21189;-57
2022/06/29 09:00:27;;;;;;;12.90;8.18;;;;;;;29.87;68.43;100776.64;1781482;79;21207;-56
2022/06/29 09:03:33;;;;;;;10.68;8.23;;;;;;;29.99;68.06;100792.63;1775981;79;21168;-56
2022/06/29 09:06:39;;;;;;;8.90;8.10;;;;;;;29.99;68.06;100792.63;1783729;80;21771;-58
2022/06/29 09:10:09;;;;;;;13.45;8.90;;;;;;;29.99;67.80;100782.75;1792166;79;21187;-56
2022/06/29 09:13:19;;;;;;;14.33;8.88;;;;;;;29.99;67.60;100782.75;1793378;80;21333;-57
2022/06/29 09:16:30;;;;;;;10.78;8.98;;;;;;;29.99;67.60;100782.75;1793060;80;21203;-57
2022/06/29 09:19:56;;;;;;;10.03;7.85;;;;;;;30.03;67.62;100783.83;1755974;81;21524;-56
2022/06/29 09:23:05;;;;;;;8.80;7.90;;;;;;;30.11;67.49;100786.63;1791944;79;21294;-54
2022/06/29 09:26:14;;;;;;;8.90;8.00;;;;;;;30.16;67.27;100783.16;1771328;81;21228;-56
2022/06/29 09:29:29;;;;;;;10.43;7.75;;;;;;;30.19;67.17;100785.40;1754611;80;21197;-56
2022/06/29 09:32:37;;;;;;;13.45;7.37;;;;;;;30.21;66.74;100785.13;1766333;81;21605;-58
2022/06/29 09:35:46;;;;;;;9.48;7.42;;;;;;;30.24;66.53;100785.98;1790737;79;21271;-57
2022/06/29 09:38:54;;;;;;;14.33;7.30;;;;;;;30.29;66.41;100774.61;1797981;79;21224;-57
2022/06/29 09:42:07;;;;;;;11.85;8.03;;;;;;;30.40;66.38;100773.38;1798472;79;21248;-56
2022/06/29 09:45:16;;;;;;;16.57;8.08;;;;;;;30.48;66.29;100771.32;1798128;79;21284;-56
2022/06/29 09:48:27;;;;;;;11.40;7.12;;;;;;;30.53;66.05;100769.30;1795779;79;21209;-57
2022/06/29 09:51:38;;;;;;;10.45;8.40;;;;;;;30.58;65.82;100778.30;1799121;79;21260;-57
2022/06/29 09:54:53;;;;;;;10.58;7.62;;;;;;;30.61;65.67;100785.62;1741939;81;21242;-56
2022/06/29 09:57:58;;;;;;;8.03;6.80;;;;;;;30.68;65.54;100775.94;1745918;81;21749;-55
2022/06/29 10:04:31;;;;;;;14.25;6.67;;;;;;;30.77;65.04;100773.60;1722539;82;21733;-55
2022/06/29 10:07:39;;;;;;;6.75;6.08;;;;;;;30.74;64.83;100776.14;1742396;81;21205;-56
2022/06/29 10:10:46;;;;;;;14.93;7.47;;;;;;;30.75;64.61;100782.09;1739101;81;21212;-58
2022/06/29 10:13:52;;;;;;;8.33;6.85;;;;;;;30.79;64.55;100778.39;1748658;81;21753;-57
2022/06/29 10:17:05;;;;;;;9.65;6.85;;;;;;;30.92;64.54;100769.77;1754688;81;21217;-56
2022/06/29 10:20:48;;;;;;;7.47;6.78;;;;;;;31.02;64.31;100766.80;1756443;81;21242;-59
2022/06/29 10:24:02;;;;;;;8.50;6.62;;;;;;;31.07;64.00;100770.98;1728879;82;21268;-57
2022/06/29 10:27:16;;;;;;;9.15;7.40;;;;;;;31.17;63.89;100773.69;1760298;81;21609;-57
2022/06/29 10:30:33;;;;;;;9.78;6.87;;;;;;;31.24;63.69;100777.83;1689124;84;21224;-55
2022/06/29 10:33:42;;;;;;;8.85;6.95;;;;;;;31.34;63.49;100778.30;1708514;82;21213;-57
2022/06/29 10:37:09;;;;;;;10.93;7.90;;;;;;;31.45;63.25;100778.44;1704121;84;21209;-57
2022/06/29 10:40:30;;;;;;;8.88;7.50;;;;;;;31.54;63.07;100776.63;1725371;83;21213;-56
2022/06/29 10:43:35;;;;;;;8.08;6.97;;;;;;;31.63;62.80;100763.47;1707447;83;21220;-56
2022/06/29 10:47:03;;;;;;;9.43;6.45;;;;;;;31.72;62.57;100768.14;1733393;82;21690;-55
2022/06/29 10:50:29;;;;;;;12.70;7.10;;;;;;;31.82;62.41;100766.58;1729596;81;21184;-55
2022/06/29 10:53:37;;;;;;;8.63;6.65;;;;;;;31.89;61.97;100769.02;1734365;82;21781;-56
2022/06/29 10:56:49;;;;;;;7.20;6.10;;;;;;;31.97;61.81;100759.27;1790097;80;21281;-56
2022/06/29 10:59:56;;;;;;;10.80;6.22;;;;;;;32.13;61.69;100757.02;1745276;81;21213;-56
2022/06/29 11:03:18;;;;;;;9.18;6.37;;;;;;;32.34;61.52;100758.92;1760053;81;21733;-56
2022/06/29 11:17:44;;;;;;;8.58;7.50;;;;;;;32.86;59.73;100762.20;1794248;80;21181;-56
2022/06/29 11:20:51;;;;;;;8.20;6.15;;;;;;;32.99;59.64;100762.83;1762495;80;21232;-56
2022/06/29 11:24:09;;;;;;;7.20;5.80;;;;;;;33.08;59.47;100755.25;1761588;81;21212;-57
2022/06/29 11:27:23;;;;;;;8.20;6.28;;;;;;;33.04;58.94;100750.53;1805542;79;21200;-55
2022/06/29 11:30:30;;;;;;;13.05;7.92;;;;;;;32.84;58.50;100750.33;1741248;81;21614;-55
2022/06/29 11:33:41;;;;;;;8.43;6.15;;;;;;;32.61;58.26;100749.09;1761375;80;21682;-56
2022/06/29 11:36:48;;;;;;;10.13;5.95;;;;;;;32.40;58.05;100750.05;1790821;80;21228;-54
2022/06/29 11:39:55;;;;;;;11.33;5.83;;;;;;;32.19;57.87;100752.94;1783195;79;21233;-54
2022/06/29 11:43:14;;;;;;;10.45;5.87;;;;;;;32.01;57.76;100749.58;1786355;79;21220;-56
2022/06/29 11:46:30;;;;;;;12.95;6.03;;;;;;;31.80;57.59;100747.62;1789115;80;21231;-56
2022/06/29 11:49:47;;;;;;;9.40;5.60;;;;;;;31.65;57.61;100748.44;1772417;79;21264;-55
2022/06/29 11:52:55;;;;;;;9.28;6.50;;;;;;;31.54;57.50;100749.14;1762424;81;21177;-56
2022/06/29 11:56:01;;;;;;;16.67;6.83;;;;;;;31.40;57.39;100753.03;1781146;79;21753;-55
2022/06/29 11:59:16;;;;;;;7.47;5.50;;;;;;;31.22;57.23;100756.09;1756723;79;21714;-56
2022/06/29 12:02:26;;;;;;;10.65;5.50;;;;;;;31.07;57.26;100763.34;1783999;80;21197;-53
2022/06/29 12:05:40;;;;;;;11.03;6.35;;;;;;;31.02;57.27;100748.41;1768084;79;21762;-55
2022/06/29 12:08:46;;;;;;;9.03;6.10;;;;;;;30.96;57.24;100742.55;1787789;80;21176;-57
2022/06/29 12:11:56;;;;;;;8.43;6.10;;;;;;;30.92;57.10;100736.64;1783844;80;21190;-55
2022/06/29 12:15:09;;;;;;;11.70;5.85;;;;;;;30.87;57.03;100722.59;1782665;79;21248;-55
2022/06/29 12:18:59;;;;;;;7.67;5.40;;;;;;;30.84;57.00;100720.38;1775761;80;21212;-54
2022/06/29 12:22:07;;;;;;;14.50;6.62;;;;;;;30.85;56.89;100715.54;1793667;80;21205;-57
2022/06/29 12:25:17;;;;;;;12.40;5.95;;;;;;;30.87;56.79;100714.11;1780662;79;21885;-57
2022/06/29 12:28:22;;;;;;;9.95;5.42;;;;;;;30.89;56.65;100707.55;1742772;81;21303;-56
2022/06/29 12:31:29;;;;;;;10.95;6.33;;;;;;;30.89;56.44;100695.42;1762260;81;21214;-56
2022/06/29 12:34:36;;;;;;;12.30;8.50;;;;;;;30.88;56.39;100683.82;1794248;80;21228;-55
2022/06/29 12:37:58;;;;;;;11.08;6.47;;;;;;;30.90;56.34;100682.95;1772904;80;21239;-57
2022/06/29 12:41:07;;;;;;;9.83;6.00;;;;;;;30.88;56.24;100678.17;1792634;80;21749;-56
2022/06/29 12:44:16;;;;;;;9.18;5.92;;;;;;;30.85;56.18;100675.38;1766181;80;21831;-57
2022/06/29 12:47:23;;;;;;;11.08;9.33;;;;;;;30.81;56.08;100674.87;1781405;80;21229;-56
2022/06/29 12:50:29;;;;;;;11.03;6.12;;;;;;;30.79;56.11;100675.19;1762622;81;21197;-55
2022/06/29 12:53:36;;;;;;;14.63;6.03;;;;;;;30.77;56.01;100670.95;1742607;81;21232;-55
2022/06/29 12:56:40;;;;;;;7.72;5.22;;;;;;;30.76;55.93;100672.97;1755079;80;21209;-55
2022/06/29 12:59:46;;;;;;;7.53;5.12;;;;;;;30.77;55.95;100670.39;1757525;81;21208;-56
2022/06/29 13:02:54;;;;;;;12.33;5.45;;;;;;;30.84;55.88;100675.69;1736614;81;21220;-58
2022/06/29 13:06:02;;;;;;;6.85;5.37;;;;;;;30.95;55.89;100664.52;1748770;81;21252;-54
2022/06/29 13:09:10;;;;;;;7.45;5.17;;;;;;;31.13;55.84;100661.70;1794680;80;21181;-56
2022/06/29 13:12:16;;;;;;;10.28;5.25;;;;;;;31.28;55.65;100662.05;1777678;80;21209;-57
2022/06/29 13:15:23;;;;;;;8.35;4.83;;;;;;;31.41;55.44;100664.98;1785917;80;21217;-57
2022/06/29 13:18:31;;;;;;;5.53;4.92;;;;;;;31.52;55.27;100665.67;1726809;81;21762;-56
2022/06/29 13:21:38;;;;;;;7.97;5.12;;;;;;;31.61;55.16;100659.58;1757256;81;21260;-57
2022/06/29 13:24:47;;;;;;;7.17;4.90;;;;;;;31.78;55.10;100664.09;1763510;80;21272;-59
2022/06/29 13:27:54;;;;;;;7.70;4.90;;;;;;;31.89;54.96;100667.91;1790574;79;21190;-59
2022/06/29 13:31:01;;;;;;;7.15;4.95;;;;;;;31.93;54.63;100676.06;1762836;80;21236;-58
2022/06/29 13:34:08;;;;;;;9.23;4.78;;;;;;;32.02;54.41;100688.92;1763311;80;21240;-58
2022/06/29 13:37:14;;;;;;;8.35;5.60;;;;;;;32.08;54.19;100684.84;1743334;81;21338;-59
2022/06/29 13:40:21;;;;;;;10.20;4.75;;;;;;;32.09;54.00;100682.30;1763027;80;21221;-57
2022/06/29 13:43:29;;;;;;;10.40;5.08;;;;;;;32.04;53.74;100683.80;1792524;80;21789;-57
2022/06/29 13:46:37;;;;;;;6.00;4.80;;;;;;;32.00;53.69;100690.66;1790172;80;21292;-57
2022/06/29 13:49:43;;;;;;;8.53;5.12;;;;;;;31.96;53.48;100691.59;1789356;79;21213;-56
2022/06/29 13:52:48;;;;;;;7.00;4.92;;;;;;;31.89;53.35;100695.38;1790937;80;21730;-56
2022/06/29 13:55:57;;;;;;;7.55;4.80;;;;;;;31.83;53.23;100694.61;1793378;80;21220;-56
2022/06/29 13:59:04;;;;;;;7.97;5.37;;;;;;;31.76;53.10;100703.23;1725918;83;21840;-57
2022/06/29 14:02:10;;;;;;;10.58;5.92;;;;;;;31.67;52.97;100709.30;1731400;82;21194;-56
2022/06/29 14:05:16;;;;;;;14.53;5.78;;;;;;;31.57;52.82;100703.82;1747786;81;21273;-56
2022/06/29 14:08:23;;;;;;;6.15;4.75;;;;;;;31.46;52.81;100702.30;1726565;81;21734;-58
2022/06/29 14:11:33;;;;;;;7.40;5.05;;;;;;;31.38;52.77;100704.39;1760199;81;21229;-56
2022/06/29 14:14:39;;;;;;;5.42;4.92;;;;;;;31.26;52.66;100702.53;1733181;82;21201;-55
2022/06/29 14:17:50;;;;;;;13.18;5.33;;;;;;;31.15;52.64;100701.00;1732534;82;21747;-56
2022/06/29 14:20:57;;;;;;;6.17;4.72;;;;;;;31.07;52.60;100703.09;1760171;81;21225;-55
2022/06/29 14:24:02;;;;;;;9.60;5.58;;;;;;;30.95;52.51;100694.20;1713147;81;21220;-56
2022/06/29 14:27:09;;;;;;;6.75;5.15;;;;;;;30.88;52.55;100703.62;1717214;83;21199;-56
2022/06/29 14:30:18;;;;;;;6.97;5.17;;;;;;;30.83;52.61;100700.88;1718251;83;21234;-56
2022/06/29 14:33:24;;;;;;;8.23;5.12;;;;;;;30.80;52.61;100702.87;1715522;82;21193;-56
2022/06/29 14:36:29;;;;;;;9.85;5.97;;;;;;;30.82;52.69;100700.03;1758994;81;21229;-56
2022/06/29 14:39:39;;;;;;;6.08;4.92;;;;;;;30.88;52.59;100690.33;1734470;82;21208;-57
2022/06/29 14:42:45;;;;;;;7.75;5.00;;;;;;;30.89;52.49;100682.70;1759781;81;21691;-56
2022/06/29 14:45:52;;;;;;;5.83;4.97;;;;;;;30.89;52.41;100668.56;1735811;82;21232;-56